Terminal Aerodrome Forecast
Issued by NWS

Home | Current Version | Previous Version | Text Only | Print | Product List | Glossary On
Versions: 1 2 3 4 5 6 7 8 9 10 11 12 13 14 15 16 17 18 19 20 21 22
211
FTUS43 KMQT 242322
TAFCMX
TAF
KCMX 242322Z 2500/2524 29009KT 4SM -DZ BR OVC003
     FM250200 31007KT 2SM -FZDZ BR OVC002
     FM251200 02007KT 1SM -FZDZSN BR OVC003
     FM251800 02011KT 3SM -DZSN BR OVC003
     FM252100 36012G20KT 3SM -SN OVC010=

USA.gov is the U.S. government's official web portal to all federal, state and local government web resources and services.